The Pas Airport
CYQD : rendu visible

Aérodrome :











RETROUVEZ-NOUS SUR...

 
LOGIN :

S'inscrire | Disclaimer

   EN    FR    IT 

 









Légende :    VFR   VFR Marginal   IFR   IFR Intensif   IFR Très Intensif
Visi : 
Plafond : 
>= 8 km
>= 3000ft
5 à 8 km
1000 à 3000 ft
1500m à 5 km
500 à 1000 ft
800 à 1500m
200 à 500 ft
< 800m
< 200 ft
Symboles :   Orages  Brouillard  Fortes neiges  Fortes précipitations  Vent > 20 kt






- Altitude de l'aérodrome : 887 ft
- Code IATA : YQD


CYQD - The Pas

DERNIER METAR :
  • 150700Z AUTO 06003KT 360V100 9SM FEW130 BKN150 M13/M18 A3025 RMK SLP269

METARs EXPIRÉS :
  • 150600Z AUTO 36006KT 9SM OVC140 M13/M18 A3024 RMK SLP264
  • 150500Z AUTO 36008KT 9SM FEW023 M12/M18 A3023 RMK SLP262

TAF TAF CYQD
Valide du 15 à 07h jusqu'au 15 à 19h UTC


150640Z 1507/1519 34006KT P6SM SCT080 BKN120
TEMPO 1507/1512 BKN080
BECMG 1507/1509 VRB03KT
FM151200 13005KT P6SM FEW020 OVC080
FM151500 13012KT P6SM SCT020 OVC050
TEMPO 1515/1519 5SM -SN BKN020 OVC040 RMK FCST BASED ON AUTO OBS. NXT FCST BY 151300Z



MET'MAP, la Météo Aéronautique d'un coup d'oeil ! - Copyright ORBIFLY Décembre 2007 - Disclaimer

ORBIFLY MET'MAP TEAM :

Programmation & Développement : Alexandra Zaïnal
Conception & Développement : Baudouin d'Aumeries
Co-Programmation & Développement : Marc-Olivier Méhu
Soutien technique & logistique : Manuel Goepfert

Contact : metmap@orbifly.com




SOURCES & CREDITS :

   NOAA       Earth
Advisory